Ever Decent — 9V7952 — position and weather

sailwx.info

Track history (hours):
 
Tides and Currents Weather Stations Pressure Air Temp Water Temp Dewpoint Dewpoint Depression Visibility Wind Speed Wind Dir Waves Ship Positions

Ever Decent

Last reported at 2016-Jun-25 05:33 UTC. Time now 2016-Jun-30 12:19 UTC.
Position N 01°44' E 102°45'.

Length 294 m; draft 12.5 m.

Type: Ship (hazmat cat D). MMSI: 564904000.

Date/timePositionNaut miles runAvg speedWind from/ knotsBaromVisibWave heightAir tempDewpointWater temp
2016-Jun-25 05:33N 01°44' E 102°45'6412.7
2016-Jun-25 00:33N 01°14' E 103°41'5 5.1
2016-Jun-24 23:30N 01°17' E 103°46'0 0.0
2016-Jun-24 22:30N 01°17' E 103°46'0 0.0
2016-Jun-24 21:30N 01°17' E 103°46'0 0.0
2016-Jun-24 20:30N 01°17' E 103°46'0 0.0
2016-Jun-24 19:30N 01°17' E 103°46'0 0.0
2016-Jun-24 18:12N 01°17' E 103°46'0 0.0
2016-Jun-24 17:30N 01°17' E 103°46'0 0.0
2016-Jun-24 16:30N 01°17' E 103°46'0 0.0
2016-Jun-24 15:30N 01°17' E 103°46'0 0.0
2016-Jun-24 14:30N 01°17' E 103°46'0 0.0
2016-Jun-24 12:32N 01°17' E 103°46'0 0.0
2016-Jun-24 11:23N 01°17' E 103°46'0 0.0
2016-Jun-24 10:29N 01°17' E 103°46'0 0.0
2016-Jun-24 08:26N 01°17' E 103°46'0 0.0
2016-Jun-24 07:33N 01°17' E 103°46'13 4.4
2016-Jun-24 04:33N 01°15' E 103°59'1010.5
2016-Jun-24 03:33N 01°17' E 104°09'  
2016-Jun-20 12:12N 22°04' E 114°23'2112.6
2016-Jun-20 10:33N 22°18' E 114°06'1110.9
2016-Jun-20 09:30N 22°22' E 113°54'5 5.2
2016-Jun-20 08:33N 22°27' E 113°53'0 0.1
2016-Jun-20 07:30N 22°27' E 113°53'0 0.1
2016-Jun-20 06:30N 22°27' E 113°53'0 0.0
2016-Jun-20 04:30N 22°27' E 113°53'0 0.0
2016-Jun-20 03:24N 22°27' E 113°53'0 0.0
2016-Jun-20 02:30N 22°27' E 113°53'0 0.0
2016-Jun-20 01:18N 22°27' E 113°53'0 0.1
2016-Jun-20 00:18N 22°27' E 113°53'0 0.0
2016-Jun-19 23:30N 22°27' E 113°53'0 0.1
2016-Jun-19 22:30N 22°27' E 113°53'0 0.1
2016-Jun-19 21:30N 22°27' E 113°53'0 0.1
2016-Jun-19 20:30N 22°27' E 113°53'0 0.0
2016-Jun-19 19:30N 22°27' E 113°53'4 4.2
2016-Jun-19 18:33N 22°23' E 113°54'1111.3
2016-Jun-19 17:33N 22°19' E 114°06'2 2.0
2016-Jun-19 16:26N 22°20' E 114°08'0 0.0
2016-Jun-19 15:14N 22°20' E 114°08'0 0.0
2016-Jun-19 14:32N 22°20' E 114°08'0 0.0
2016-Jun-19 02:33N 22°20' E 114°08'0 0.1
2016-Jun-19 01:34N 22°20' E 114°08'3 2.8
2016-Jun-19 00:33N 22°17' E 114°06'12 9.1
2016-Jun-18 23:15N 22°09' E 114°15'25013.2
2016-Jun-18 04:20N 23°48' E 118°24'1315.0
2016-Jun-18 03:30N 23°60' E 118°23'1414.2
2016-Jun-18 02:33N 24°12' E 118°16'1111.6
2016-Jun-18 01:34N 24°21' E 118°09'10 9.9
2016-Jun-18 00:33N 24°30' E 118°04'1 0.6
2016-Jun-17 23:28N 24°31' E 118°05'0 0.0
2016-Jun-17 22:31N 24°31' E 118°05'0 0.0
2016-Jun-17 21:31N 24°31' E 118°05'0 0.0
2016-Jun-17 20:31N 24°31' E 118°05'0 0.0
2016-Jun-17 19:31N 24°31' E 118°05'0 0.0
2016-Jun-17 18:31N 24°31' E 118°05'0 0.0
2016-Jun-17 17:31N 24°31' E 118°05'0 0.0
2016-Jun-17 16:28N 24°31' E 118°05'0 0.0
2016-Jun-17 15:31N 24°31' E 118°05'0 0.0
2016-Jun-17 14:31N 24°31' E 118°05'1 1.3
2016-Jun-17 13:33N 24°30' E 118°04'9 9.3
2016-Jun-17 12:34N 24°21' E 118°09'1312.5
2016-Jun-17 11:32N 24°11' E 118°17'3 0.6
2016-Jun-17 06:22N 24°08' E 118°19'0 0.0
2016-Jun-17 05:22N 24°08' E 118°19'0 0.0
2016-Jun-17 04:28N 24°08' E 118°19'0 0.1
2016-Jun-17 02:10N 24°08' E 118°19'2 3.4
2016-Jun-17 01:33N 24°10' E 118°18'9 9.5
2016-Jun-17 00:33N 24°02' E 118°23'12115.1
2016-Jun-16 16:34N 22°34' E 119°53'1110.9
2016-Jun-16 15:33N 22°32' E 120°05'1111.4
2016-Jun-16 14:33N 22°33' E 120°17'2 1.9
2016-Jun-16 13:31N 22°33' E 120°19'0 0.0
2016-Jun-16 11:13N 22°33' E 120°19'0 0.0
2016-Jun-16 10:32N 22°33' E 120°19'0 0.0
2016-Jun-16 08:26N 22°33' E 120°19'0 0.0
2016-Jun-16 07:32N 22°33' E 120°19'0 0.0
2016-Jun-16 06:25N 22°33' E 120°19'0 0.0
2016-Jun-16 04:19N 22°33' E 120°19'0 0.0
2016-Jun-16 03:31N 22°33' E 120°19'0 0.0
2016-Jun-16 00:16N 22°33' E 120°19'0 0.0
2016-Jun-15 23:16N 22°33' E 120°19'0 0.0
2016-Jun-15 22:28N 22°33' E 120°19'0 0.0
2016-Jun-15 21:28N 22°33' E 120°19'0 0.0
2016-Jun-15 20:28N 22°33' E 120°19'0 0.0
2016-Jun-15 17:25N 22°33' E 120°19'0 0.0
2016-Jun-15 16:19N 22°33' E 120°19'0 0.0
2016-Jun-15 14:31N 22°33' E 120°19'0 0.0
2016-Jun-15 11:13N 22°33' E 120°19'0 0.0
2016-Jun-15 10:31N 22°33' E 120°19'0 0.0
2016-Jun-15 09:28N 22°33' E 120°19'0 0.0
2016-Jun-15 08:33N 22°33' E 120°19'0 0.0
2016-Jun-15 07:21N 22°33' E 120°19'0 0.0
2016-Jun-15 06:27N 22°33' E 120°19'  
Track history (hours):
 
Tides and Currents Weather Stations Pressure Air Temp Water Temp Dewpoint Dewpoint Depression Visibility Wind Speed Wind Dir Waves Ship Positions

Ever Decent

Last reported at 2016-Jun-25 05:33 UTC. Time now 2016-Jun-30 12:19 UTC.
Position N 01°44' E 102°45'.

Length 294 m; draft 12.5 m.

Type: Ship (hazmat cat D). MMSI: 564904000.

Date/timePositionNaut miles runAvg speedWind from/ knotsBaromVisibWave heightAir tempDewpointWater temp
2016-Jun-25 05:33N 01°44' E 102°45'6412.7
2016-Jun-25 00:33N 01°14' E 103°41'5 5.1
2016-Jun-24 23:30N 01°17' E 103°46'0 0.0
2016-Jun-24 22:30N 01°17' E 103°46'0 0.0
2016-Jun-24 21:30N 01°17' E 103°46'0 0.0
2016-Jun-24 20:30N 01°17' E 103°46'0 0.0
2016-Jun-24 19:30N 01°17' E 103°46'0 0.0
2016-Jun-24 18:12N 01°17' E 103°46'0 0.0
2016-Jun-24 17:30N 01°17' E 103°46'0 0.0
2016-Jun-24 16:30N 01°17' E 103°46'0 0.0
2016-Jun-24 15:30N 01°17' E 103°46'0 0.0
2016-Jun-24 14:30N 01°17' E 103°46'0 0.0
2016-Jun-24 12:32N 01°17' E 103°46'0 0.0
2016-Jun-24 11:23N 01°17' E 103°46'0 0.0
2016-Jun-24 10:29N 01°17' E 103°46'0 0.0
2016-Jun-24 08:26N 01°17' E 103°46'0 0.0
2016-Jun-24 07:33N 01°17' E 103°46'13 4.4
2016-Jun-24 04:33N 01°15' E 103°59'1010.5
2016-Jun-24 03:33N 01°17' E 104°09'  
2016-Jun-20 12:12N 22°04' E 114°23'2112.6
2016-Jun-20 10:33N 22°18' E 114°06'1110.9
2016-Jun-20 09:30N 22°22' E 113°54'5 5.2
2016-Jun-20 08:33N 22°27' E 113°53'0 0.1
2016-Jun-20 07:30N 22°27' E 113°53'0 0.1
2016-Jun-20 06:30N 22°27' E 113°53'0 0.0
2016-Jun-20 04:30N 22°27' E 113°53'0 0.0
2016-Jun-20 03:24N 22°27' E 113°53'0 0.0
2016-Jun-20 02:30N 22°27' E 113°53'0 0.0
2016-Jun-20 01:18N 22°27' E 113°53'0 0.1
2016-Jun-20 00:18N 22°27' E 113°53'0 0.0
2016-Jun-19 23:30N 22°27' E 113°53'0 0.1
2016-Jun-19 22:30N 22°27' E 113°53'0 0.1
2016-Jun-19 21:30N 22°27' E 113°53'0 0.1
2016-Jun-19 20:30N 22°27' E 113°53'0 0.0
2016-Jun-19 19:30N 22°27' E 113°53'4 4.2
2016-Jun-19 18:33N 22°23' E 113°54'1111.3
2016-Jun-19 17:33N 22°19' E 114°06'2 2.0
2016-Jun-19 16:26N 22°20' E 114°08'0 0.0
2016-Jun-19 15:14N 22°20' E 114°08'0 0.0
2016-Jun-19 14:32N 22°20' E 114°08'0 0.0
2016-Jun-19 02:33N 22°20' E 114°08'0 0.1
2016-Jun-19 01:34N 22°20' E 114°08'3 2.8
2016-Jun-19 00:33N 22°17' E 114°06'12 9.1
2016-Jun-18 23:15N 22°09' E 114°15'25013.2
2016-Jun-18 04:20N 23°48' E 118°24'1315.0
2016-Jun-18 03:30N 23°60' E 118°23'1414.2
2016-Jun-18 02:33N 24°12' E 118°16'1111.6
2016-Jun-18 01:34N 24°21' E 118°09'10 9.9
2016-Jun-18 00:33N 24°30' E 118°04'1 0.6
2016-Jun-17 23:28N 24°31' E 118°05'0 0.0
2016-Jun-17 22:31N 24°31' E 118°05'0 0.0
2016-Jun-17 21:31N 24°31' E 118°05'0 0.0
2016-Jun-17 20:31N 24°31' E 118°05'0 0.0
2016-Jun-17 19:31N 24°31' E 118°05'0 0.0
2016-Jun-17 18:31N 24°31' E 118°05'0 0.0
2016-Jun-17 17:31N 24°31' E 118°05'0 0.0
2016-Jun-17 16:28N 24°31' E 118°05'0 0.0
2016-Jun-17 15:31N 24°31' E 118°05'0 0.0
2016-Jun-17 14:31N 24°31' E 118°05'1 1.3
2016-Jun-17 13:33N 24°30' E 118°04'9 9.3
2016-Jun-17 12:34N 24°21' E 118°09'1312.5
2016-Jun-17 11:32N 24°11' E 118°17'3 0.6
2016-Jun-17 06:22N 24°08' E 118°19'0 0.0
2016-Jun-17 05:22N 24°08' E 118°19'0 0.0
2016-Jun-17 04:28N 24°08' E 118°19'0 0.1
2016-Jun-17 02:10N 24°08' E 118°19'2 3.4
2016-Jun-17 01:33N 24°10' E 118°18'9 9.5
2016-Jun-17 00:33N 24°02' E 118°23'12115.1
2016-Jun-16 16:34N 22°34' E 119°53'1110.9
2016-Jun-16 15:33N 22°32' E 120°05'1111.4
2016-Jun-16 14:33N 22°33' E 120°17'2 1.9
2016-Jun-16 13:31N 22°33' E 120°19'0 0.0
2016-Jun-16 11:13N 22°33' E 120°19'0 0.0
2016-Jun-16 10:32N 22°33' E 120°19'0 0.0
2016-Jun-16 08:26N 22°33' E 120°19'0 0.0
2016-Jun-16 07:32N 22°33' E 120°19'0 0.0
2016-Jun-16 06:25N 22°33' E 120°19'0 0.0
2016-Jun-16 04:19N 22°33' E 120°19'0 0.0
2016-Jun-16 03:31N 22°33' E 120°19'0 0.0
2016-Jun-16 00:16N 22°33' E 120°19'0 0.0
2016-Jun-15 23:16N 22°33' E 120°19'0 0.0
2016-Jun-15 22:28N 22°33' E 120°19'0 0.0
2016-Jun-15 21:28N 22°33' E 120°19'0 0.0
2016-Jun-15 20:28N 22°33' E 120°19'0 0.0
2016-Jun-15 17:25N 22°33' E 120°19'0 0.0
2016-Jun-15 16:19N 22°33' E 120°19'0 0.0
2016-Jun-15 14:31N 22°33' E 120°19'0 0.0
2016-Jun-15 11:13N 22°33' E 120°19'0 0.0
2016-Jun-15 10:31N 22°33' E 120°19'0 0.0
2016-Jun-15 09:28N 22°33' E 120°19'0 0.0
2016-Jun-15 08:33N 22°33' E 120°19'0 0.0
2016-Jun-15 07:21N 22°33' E 120°19'0 0.0
2016-Jun-15 06:27N 22°33' E 120°19'  

Dump ship's entire track history